createdAt,value
2018-12-08T00:00:16.597Z,126.17
2018-12-08T00:02:45.686Z,114.20
2018-12-08T00:05:14.813Z,132.67
2018-12-08T00:07:43.929Z,154.70
2018-12-08T00:10:13.034Z,259.67
2018-12-08T00:12:42.147Z,219.63
2018-12-08T00:15:11.278Z,236.07
2018-12-08T00:17:40.422Z,256.23
2018-12-08T00:20:09.565Z,198.87
2018-12-08T00:22:38.706Z,156.60
2018-12-08T00:25:07.825Z,167.30
2018-12-08T00:27:37.081Z,173.27
2018-12-08T00:30:15.941Z,165.87
2018-12-08T00:32:45.082Z,167.20
2018-12-08T00:35:14.214Z,152.47
2018-12-08T00:37:43.347Z,159.13
2018-12-08T00:40:12.462Z,139.10
2018-12-08T00:42:41.612Z,131.67
2018-12-08T00:45:10.737Z,123.57
2018-12-08T00:47:39.865Z,121.87
2018-12-08T00:50:08.961Z,124.07
2018-12-08T00:52:38.267Z,112.93
2018-12-08T00:55:07.442Z,96.63
2018-12-08T00:57:36.558Z,116.47
2018-12-08T01:00:06.000Z,94.23
2018-12-08T01:02:35.144Z,97.97
2018-12-08T01:05:04.258Z,74.23
2018-12-08T01:07:33.354Z,97.70
2018-12-08T01:10:02.477Z,74.27
2018-12-08T01:12:31.570Z,79.30
2018-12-08T01:15:00.651Z,62.73
2018-12-08T01:17:29.746Z,56.57
2018-12-08T01:19:58.857Z,71.77
2018-12-08T01:22:27.994Z,72.33
2018-12-08T01:24:57.102Z,63.40
2018-12-08T01:27:26.244Z,54.00
2018-12-08T01:29:55.306Z,55.43
2018-12-08T01:32:24.400Z,48.60
2018-12-08T01:34:53.507Z,54.03
2018-12-08T01:37:22.669Z,48.57
2018-12-08T01:39:51.782Z,35.90
2018-12-08T01:42:20.880Z,45.37
2018-12-08T01:44:50.001Z,42.27
2018-12-08T01:47:19.129Z,35.73
2018-12-08T01:49:48.245Z,47.03
2018-12-08T01:52:17.362Z,41.87
2018-12-08T01:54:46.446Z,33.30
2018-12-08T01:57:15.569Z,42.60
2018-12-08T01:59:44.678Z,32.00
2018-12-08T02:02:13.805Z,32.63
2018-12-08T02:04:42.916Z,34.23
2018-12-08T02:07:12.044Z,22.50
2018-12-08T02:09:41.233Z,27.30
2018-12-08T02:12:10.356Z,23.27
2018-12-08T02:14:39.459Z,23.40
2018-12-08T02:17:08.599Z,32.93
2018-12-08T02:19:37.732Z,24.60
2018-12-08T02:22:06.901Z,30.97
2018-12-08T02:24:36.321Z,31.37
2018-12-08T02:27:05.420Z,33.97
2018-12-08T02:29:34.563Z,41.30
2018-12-08T02:32:03.797Z,37.67
2018-12-08T02:34:32.933Z,51.53
2018-12-08T02:37:02.075Z,39.67
2018-12-08T02:39:31.221Z,46.90
2018-12-08T02:42:00.317Z,37.43
2018-12-08T02:44:29.465Z,40.83
2018-12-08T02:46:58.581Z,45.03
2018-12-08T02:49:27.696Z,40.77
2018-12-08T02:52:00.602Z,42.57
2018-12-08T02:54:29.706Z,50.47
2018-12-08T02:56:58.832Z,34.37
2018-12-08T02:59:27.967Z,41.63
2018-12-08T03:01:57.130Z,42.20
2018-12-08T03:04:26.250Z,40.43
2018-12-08T03:06:55.409Z,60.33
2018-12-08T03:09:24.525Z,49.03
2018-12-08T03:11:53.621Z,43.70
2018-12-08T03:14:22.736Z,43.70
2018-12-08T03:16:51.856Z,56.17
2018-12-08T03:19:20.969Z,48.73
2018-12-08T03:21:50.079Z,72.90
2018-12-08T03:24:19.247Z,51.67
2018-12-08T03:26:48.429Z,50.57
2018-12-08T03:29:17.554Z,55.77
2018-12-08T03:31:46.671Z,42.77
2018-12-08T03:34:15.810Z,45.07
2018-12-08T03:36:44.916Z,49.10
2018-12-08T03:39:14.052Z,40.30
2018-12-08T03:41:43.148Z,43.40
2018-12-08T03:44:12.249Z,44.47
2018-12-08T03:46:41.354Z,43.90
2018-12-08T03:49:10.475Z,38.43
2018-12-08T03:51:39.581Z,47.40
2018-12-08T03:54:08.680Z,34.50
2018-12-08T03:56:37.777Z,31.20
2018-12-08T03:59:07.012Z,39.13
2018-12-08T04:01:36.146Z,34.13
2018-12-08T04:04:05.247Z,38.00
2018-12-08T04:06:34.358Z,32.80
2018-12-08T04:09:04.163Z,37.00
2018-12-08T04:11:33.274Z,34.80
2018-12-08T04:14:02.403Z,34.43
2018-12-08T04:16:31.513Z,35.83
2018-12-08T04:19:00.633Z,32.97
2018-12-08T04:21:29.728Z,36.27
2018-12-08T04:23:58.856Z,32.50
2018-12-08T04:26:27.974Z,44.90
2018-12-08T04:28:57.123Z,35.17
2018-12-08T04:31:26.259Z,32.90
2018-12-08T04:33:55.386Z,33.53
2018-12-08T04:36:24.511Z,35.90
2018-12-08T04:38:53.658Z,39.60
2018-12-08T04:41:22.770Z,35.80
2018-12-08T04:43:51.915Z,34.60
2018-12-08T04:46:21.030Z,38.10
2018-12-08T04:48:50.183Z,41.73
2018-12-08T04:51:19.299Z,43.77
2018-12-08T04:53:48.447Z,43.03
2018-12-08T04:56:17.569Z,36.93
2018-12-08T04:58:46.706Z,30.27
2018-12-08T05:01:15.852Z,30.13
2018-12-08T05:03:44.988Z,31.83
2018-12-08T05:06:14.110Z,25.20
2018-12-08T05:08:43.230Z,26.13
2018-12-08T05:11:12.339Z,34.10
2018-12-08T05:13:41.441Z,32.27
2018-12-08T05:16:10.541Z,35.23
2018-12-08T05:18:39.682Z,49.67
2018-12-08T05:21:08.744Z,56.07
2018-12-08T05:23:37.860Z,59.27
2018-12-08T05:26:06.958Z,51.13
2018-12-08T05:28:36.069Z,82.50
2018-12-08T05:31:05.174Z,74.10
2018-12-08T05:33:34.336Z,74.97
2018-12-08T05:36:03.471Z,82.23
2018-12-08T05:38:32.607Z,103.67
2018-12-08T05:41:01.720Z,84.60
2018-12-08T05:43:30.824Z,103.13
2018-12-08T05:45:59.944Z,107.77
2018-12-08T05:48:29.063Z,123.93
2018-12-08T05:50:58.214Z,107.27
2018-12-08T05:53:27.309Z,98.57
2018-12-08T05:55:56.435Z,81.90
2018-12-08T05:58:25.543Z,68.40
2018-12-08T06:00:54.668Z,58.80
2018-12-08T06:03:23.802Z,63.60
2018-12-08T06:05:52.934Z,57.00
2018-12-08T06:08:22.044Z,60.20
2018-12-08T06:10:51.184Z,80.20
2018-12-08T06:13:20.308Z,64.10
2018-12-08T06:15:49.425Z,55.23
2018-12-08T06:18:18.528Z,52.70
2018-12-08T06:20:47.670Z,54.43
2018-12-08T06:23:16.769Z,66.43
2018-12-08T06:25:45.889Z,54.50
2018-12-08T06:28:21.670Z,58.60
2018-12-08T06:30:50.808Z,54.40
2018-12-08T06:33:19.929Z,44.17
2018-12-08T06:35:49.122Z,42.73
2018-12-08T06:38:18.239Z,38.80
2018-12-08T06:40:47.365Z,37.77
2018-12-08T06:43:16.454Z,33.57
2018-12-08T06:45:45.596Z,30.23
2018-12-08T06:48:14.708Z,27.97
2018-12-08T06:50:43.858Z,32.50
2018-12-08T06:53:13.000Z,33.93
2018-12-08T06:55:42.147Z,38.63
2018-12-08T06:58:11.261Z,38.63
2018-12-08T07:00:40.357Z,40.60
2018-12-08T07:03:09.433Z,37.00
2018-12-08T07:05:38.588Z,36.70
2018-12-08T07:08:07.707Z,35.00
2018-12-08T07:10:36.829Z,33.67
2018-12-08T07:13:05.907Z,29.77
2018-12-08T07:15:35.031Z,34.10
2018-12-08T07:18:04.138Z,45.93
2018-12-08T07:20:33.250Z,44.47
2018-12-08T07:23:02.340Z,38.23
2018-12-08T07:26:02.137Z,65.60
2018-12-08T07:28:31.302Z,55.93
2018-12-08T07:31:00.418Z,52.57
2018-12-08T07:33:29.545Z,43.63
2018-12-08T07:35:58.650Z,62.57
2018-12-08T07:38:27.754Z,50.37
2018-12-08T07:40:56.857Z,38.73
2018-12-08T07:43:25.960Z,31.73
2018-12-08T07:45:55.090Z,124.07
2018-12-08T07:48:24.196Z,38.80
2018-12-08T07:50:53.296Z,80.70
2018-12-08T07:53:22.433Z,35.27
2018-12-08T07:55:51.537Z,36.07
2018-12-08T07:58:20.648Z,697.13
2018-12-08T08:00:49.905Z,197.40
2018-12-08T08:03:19.022Z,32.83
2018-12-08T08:05:48.149Z,21.60
2018-12-08T08:08:17.262Z,43.83
2018-12-08T08:10:46.381Z,21.87
2018-12-08T08:13:15.500Z,25.20
2018-12-08T08:15:44.619Z,25.70
2018-12-08T08:18:13.703Z,20.90
2018-12-08T08:20:42.821Z,13.97
2018-12-08T08:23:11.916Z,31.20
2018-12-08T08:25:41.037Z,17.63
2018-12-08T08:28:10.133Z,104.80
2018-12-08T08:30:39.245Z,147.03
2018-12-08T08:33:08.348Z,48.57
2018-12-08T08:35:37.465Z,17.60
2018-12-08T08:38:06.587Z,29.90
2018-12-08T08:40:35.681Z,19.10
2018-12-08T08:43:04.857Z,16.60
2018-12-08T08:45:34.077Z,21.37
2018-12-08T08:48:03.165Z,15.73
2018-12-08T08:50:32.261Z,21.00
2018-12-08T08:53:03.437Z,17.40
2018-12-08T08:55:32.551Z,15.23
2018-12-08T08:58:01.646Z,23.00
2018-12-08T09:00:30.737Z,33.53
2018-12-08T09:02:59.853Z,46.03
2018-12-08T09:05:29.013Z,82.20
2018-12-08T09:07:58.117Z,79.47
2018-12-08T09:10:27.227Z,93.83
2018-12-08T09:12:56.348Z,93.20
2018-12-08T09:15:25.443Z,79.50
2018-12-08T09:17:54.560Z,81.47
2018-12-08T09:20:23.761Z,71.50
2018-12-08T09:22:52.862Z,68.37
2018-12-08T09:25:21.955Z,77.73
2018-12-08T09:27:51.074Z,48.90
2018-12-08T09:30:20.133Z,49.03
2018-12-08T09:32:49.257Z,45.43
2018-12-08T09:35:18.345Z,36.10
2018-12-08T09:37:47.453Z,36.10
2018-12-08T09:40:16.576Z,38.13
2018-12-08T09:42:45.680Z,52.00
2018-12-08T09:45:14.755Z,56.83
2018-12-08T09:47:43.855Z,52.63
2018-12-08T09:50:12.965Z,51.70
2018-12-08T09:52:42.077Z,49.97
2018-12-08T09:55:11.201Z,42.87
2018-12-08T09:57:40.335Z,31.13
2018-12-08T10:00:09.444Z,37.13
2018-12-08T10:02:38.557Z,34.77
2018-12-08T10:05:07.638Z,25.57
2018-12-08T10:07:36.770Z,23.17
2018-12-08T10:10:06.410Z,23.80
2018-12-08T10:12:35.514Z,16.20
2018-12-08T10:15:04.633Z,15.30
2018-12-08T10:17:33.775Z,17.43
2018-12-08T10:20:03.043Z,9.80
2018-12-08T10:22:32.142Z,11.87
2018-12-08T10:25:01.274Z,12.43
2018-12-08T10:27:30.442Z,10.27
2018-12-08T10:29:59.553Z,10.93
2018-12-08T10:32:28.633Z,9.77
2018-12-08T10:34:57.826Z,9.50
2018-12-08T10:37:26.949Z,11.73
2018-12-08T10:39:56.045Z,10.80
2018-12-08T10:42:25.129Z,10.47
2018-12-08T10:44:54.248Z,10.57
2018-12-08T10:47:23.349Z,11.53
2018-12-08T10:49:52.433Z,11.73
2018-12-08T10:52:21.563Z,14.77
2018-12-08T10:54:50.637Z,10.63
2018-12-08T10:57:19.744Z,14.33
2018-12-08T10:59:48.837Z,9.97
2018-12-08T11:02:23.023Z,9.63
2018-12-08T11:04:52.129Z,11.53
2018-12-08T11:07:21.244Z,76.67
2018-12-08T11:09:50.371Z,91.03
2018-12-08T11:12:19.476Z,56.13
2018-12-08T11:14:48.605Z,22.63
2018-12-08T11:17:17.724Z,26.90
2018-12-08T11:19:46.854Z,31.60
2018-12-08T11:22:15.933Z,36.57
2018-12-08T11:24:45.007Z,30.60
2018-12-08T11:27:14.107Z,39.57
2018-12-08T11:29:43.188Z,46.60
2018-12-08T11:32:12.289Z,81.10
2018-12-08T11:34:41.396Z,111.43
2018-12-08T11:37:10.499Z,83.93
2018-12-08T11:39:39.610Z,106.77
2018-12-08T11:42:08.729Z,104.13
2018-12-08T11:44:37.993Z,101.97
2018-12-08T11:47:07.128Z,85.00
2018-12-08T11:49:36.225Z,188.37
2018-12-08T11:52:05.339Z,237.30
2018-12-08T11:54:34.445Z,213.30
2018-12-08T11:57:03.672Z,228.57
2018-12-08T11:59:32.791Z,212.20
2018-12-08T12:02:01.934Z,186.57
2018-12-08T12:04:31.039Z,185.00
2018-12-08T12:07:00.182Z,162.63
2018-12-08T12:09:29.298Z,149.97
2018-12-08T12:11:58.397Z,137.40
2018-12-08T12:14:41.556Z,133.20
2018-12-08T12:17:10.730Z,133.00
2018-12-08T12:19:39.845Z,129.30
2018-12-08T12:22:08.936Z,131.53
2018-12-08T12:24:38.049Z,143.30
2018-12-08T12:27:07.174Z,151.87
2018-12-08T12:29:36.260Z,151.13
2018-12-08T12:32:05.349Z,161.63
2018-12-08T12:34:34.553Z,158.80
2018-12-08T12:37:03.636Z,159.97
2018-12-08T12:39:32.769Z,157.30
2018-12-08T12:42:01.857Z,151.60
2018-12-08T12:44:30.974Z,162.83
2018-12-08T12:47:00.101Z,169.47
2018-12-08T12:49:29.209Z,196.57
2018-12-08T12:51:58.324Z,194.73
2018-12-08T12:54:27.449Z,196.10
2018-12-08T12:56:56.558Z,192.03
2018-12-08T12:59:25.683Z,205.03
2018-12-08T13:01:55.251Z,193.47
2018-12-08T13:04:24.383Z,214.80
2018-12-08T13:06:53.505Z,228.70
2018-12-08T13:09:22.614Z,235.20
2018-12-08T13:11:51.966Z,220.50
2018-12-08T13:14:21.048Z,211.93
2018-12-08T13:16:50.185Z,199.10
2018-12-08T13:19:19.260Z,177.80
2018-12-08T13:21:48.384Z,167.33
2018-12-08T13:24:17.521Z,173.87
2018-12-08T13:26:46.606Z,150.20
2018-12-08T13:29:15.709Z,160.73
2018-12-08T13:31:45.265Z,157.17
2018-12-08T13:34:26.923Z,165.00
2018-12-08T13:36:56.039Z,162.87
2018-12-08T13:39:25.168Z,173.50
2018-12-08T13:41:54.268Z,171.50
2018-12-08T13:44:42.058Z,169.33
2018-12-08T13:47:11.160Z,158.90
2018-12-08T13:49:40.306Z,144.70
2018-12-08T13:52:09.425Z,154.10
2018-12-08T13:57:28.913Z,148.53
2018-12-08T13:59:58.568Z,157.57
2018-12-08T14:02:28.333Z,178.23
2018-12-08T14:04:59.067Z,152.23
2018-12-08T14:07:28.179Z,164.20
2018-12-08T14:09:57.308Z,163.33
2018-12-08T14:12:26.435Z,252.70
2018-12-08T14:14:55.593Z,240.30
2018-12-08T14:17:24.955Z,185.33
2018-12-08T14:19:54.092Z,180.80
2018-12-08T14:22:23.183Z,177.20
2018-12-08T14:24:52.296Z,148.00
2018-12-08T14:27:21.401Z,197.80
2018-12-08T14:29:50.521Z,171.10
2018-12-08T14:32:19.659Z,199.50
2018-12-08T14:34:48.763Z,240.97
2018-12-08T14:37:17.865Z,288.67
2018-12-08T14:39:47.006Z,312.63
2018-12-08T14:42:16.114Z,362.67
2018-12-08T14:44:47.188Z,382.37
2018-12-08T14:47:16.283Z,461.47
2018-12-08T14:49:46.582Z,467.70
2018-12-08T14:52:15.689Z,480.57
2018-12-08T14:54:44.889Z,469.60
2018-12-08T14:57:14.596Z,481.03
2018-12-08T14:59:43.714Z,451.30
2018-12-08T15:02:12.818Z,479.73
2018-12-08T15:04:41.949Z,466.43
2018-12-08T15:07:11.092Z,469.13
2018-12-08T15:09:40.193Z,462.60
2018-12-08T15:12:09.327Z,309.60
2018-12-08T15:14:38.434Z,300.50
2018-12-08T15:17:07.080Z,279.10
2018-12-08T15:19:36.188Z,268.20
2018-12-08T15:22:05.301Z,263.47
2018-12-08T15:24:34.412Z,249.50
2018-12-08T15:27:03.561Z,282.07
2018-12-08T15:29:32.682Z,329.90
2018-12-08T15:32:01.809Z,273.10
2018-12-08T15:34:30.920Z,233.47
2018-12-08T15:37:00.142Z,278.40
2018-12-08T15:39:29.264Z,251.23
2018-12-08T15:41:58.382Z,249.47
2018-12-08T15:44:27.506Z,271.20
2018-12-08T15:46:56.637Z,266.90
2018-12-08T15:49:25.778Z,283.80
2018-12-08T15:51:58.005Z,320.13
2018-12-08T15:54:27.145Z,292.67
2018-12-08T15:56:56.266Z,291.73
2018-12-08T15:59:25.403Z,286.97
2018-12-08T16:01:54.613Z,287.70
2018-12-08T16:04:23.725Z,308.10
2018-12-08T16:06:52.849Z,259.90
2018-12-08T16:09:22.008Z,336.50
2018-12-08T16:11:51.130Z,304.37
2018-12-08T16:14:20.260Z,328.10
2018-12-08T16:16:49.448Z,289.37
2018-12-08T16:19:18.598Z,270.77
2018-12-08T16:21:48.117Z,294.37
2018-12-08T16:24:17.228Z,263.07
2018-12-08T16:26:46.331Z,327.60
2018-12-08T16:29:15.426Z,332.57
2018-12-08T16:31:44.555Z,306.20
2018-12-08T16:34:13.686Z,333.87
2018-12-08T16:36:42.834Z,268.87
2018-12-08T16:39:11.976Z,271.97
2018-12-08T16:41:41.114Z,221.47
2018-12-08T16:44:10.232Z,276.30
2018-12-08T16:46:39.361Z,269.43
2018-12-08T16:49:08.447Z,237.70
2018-12-08T16:51:37.536Z,239.20
2018-12-08T16:54:06.673Z,226.17
2018-12-08T16:56:35.812Z,186.33
2018-12-08T16:59:04.952Z,236.67
2018-12-08T17:01:34.091Z,228.43
2018-12-08T17:04:03.242Z,248.57
2018-12-08T17:06:32.359Z,372.13
2018-12-08T17:09:01.504Z,417.20
2018-12-08T17:11:30.679Z,444.63
2018-12-08T17:13:59.799Z,454.30
2018-12-08T17:16:28.932Z,424.83
2018-12-08T17:18:58.060Z,450.20
2018-12-08T17:21:27.188Z,456.30
2018-12-08T17:23:56.313Z,425.37
2018-12-08T17:26:25.421Z,417.43
2018-12-08T17:28:54.563Z,413.33
2018-12-08T17:31:23.713Z,369.63
2018-12-08T17:33:52.819Z,371.83
2018-12-08T17:36:21.983Z,367.53
2018-12-08T17:38:51.125Z,335.13
2018-12-08T17:41:20.307Z,324.27
2018-12-08T17:43:49.425Z,329.90
2018-12-08T17:46:18.591Z,307.67
2018-12-08T17:48:47.734Z,313.43
2018-12-08T17:51:16.910Z,400.13
2018-12-08T17:53:46.021Z,487.20
2018-12-08T17:56:15.165Z,511.37
2018-12-08T17:58:44.327Z,503.17
2018-12-08T18:01:13.493Z,494.67
2018-12-08T18:03:42.625Z,494.07
2018-12-08T18:06:11.777Z,500.43
2018-12-08T18:08:40.907Z,500.17
2018-12-08T18:11:10.059Z,503.17
2018-12-08T18:13:39.181Z,519.20
2018-12-08T18:16:08.309Z,529.13
2018-12-08T18:18:37.473Z,501.07
2018-12-08T18:21:06.576Z,500.23
2018-12-08T18:23:35.806Z,497.53
2018-12-08T18:26:04.938Z,500.30
2018-12-08T18:28:34.084Z,480.63
2018-12-08T18:31:04.162Z,492.83
2018-12-08T18:33:33.292Z,481.27
2018-12-08T18:36:02.461Z,502.43
2018-12-08T18:38:31.601Z,490.30
2018-12-08T18:41:00.749Z,474.27
2018-12-08T18:43:29.929Z,470.00
2018-12-08T18:45:59.070Z,466.10
2018-12-08T18:48:28.287Z,470.63
2018-12-08T18:50:57.413Z,479.03
2018-12-08T18:53:26.829Z,452.50
2018-12-08T18:55:55.940Z,443.53
2018-12-08T18:58:25.071Z,423.07
2018-12-08T19:00:54.509Z,394.63
2018-12-08T19:03:23.784Z,409.60
2018-12-08T19:05:52.920Z,406.70
2018-12-08T19:08:22.030Z,411.10
2018-12-08T19:10:51.305Z,398.70
2018-12-08T19:13:20.427Z,379.50
2018-12-08T19:15:49.553Z,385.17
2018-12-08T19:18:18.656Z,407.23
2018-12-08T19:20:47.784Z,410.47
2018-12-08T19:23:16.886Z,380.53
2018-12-08T19:25:46.005Z,373.57
2018-12-08T19:28:15.149Z,375.97
2018-12-08T19:30:44.273Z,412.30
2018-12-08T19:33:14.598Z,412.00
2018-12-08T19:35:44.075Z,395.17
2018-12-08T19:38:13.265Z,364.20
2018-12-08T19:40:42.413Z,343.40
2018-12-08T19:43:11.550Z,319.60
2018-12-08T19:45:40.660Z,296.10
2018-12-08T19:48:09.771Z,286.67
2018-12-08T19:50:38.993Z,304.43
2018-12-08T19:53:08.125Z,315.23
2018-12-08T19:55:37.553Z,318.93
2018-12-08T19:58:07.761Z,318.53
2018-12-08T20:00:36.926Z,341.10
2018-12-08T20:03:06.078Z,323.47
2018-12-08T20:05:35.176Z,339.70
2018-12-08T20:08:05.100Z,292.43
2018-12-08T20:10:34.716Z,281.40
2018-12-08T20:13:04.876Z,304.60
2018-12-08T20:15:34.016Z,312.07
2018-12-08T20:18:05.865Z,339.67
2018-12-08T20:20:34.962Z,315.30
2018-12-08T20:23:04.078Z,305.73
2018-12-08T20:25:33.206Z,290.77
2018-12-08T20:28:02.329Z,317.93
2018-12-08T20:30:31.445Z,358.83
2018-12-08T20:33:00.557Z,389.10
2018-12-08T20:35:29.650Z,422.10
2018-12-08T20:37:58.734Z,463.17
2018-12-08T20:40:27.826Z,450.87
2018-12-08T20:42:56.930Z,459.77
2018-12-08T20:45:26.023Z,451.43
2018-12-08T20:47:55.113Z,495.73
2018-12-08T20:50:24.209Z,492.40
2018-12-08T20:52:53.314Z,499.00
2018-12-08T20:55:24.512Z,519.77
2018-12-08T20:57:53.617Z,561.37
2018-12-08T21:00:22.740Z,518.10
2018-12-08T21:02:51.884Z,459.20
2018-12-08T21:05:21.136Z,283.73
2018-12-08T21:07:50.251Z,205.40
2018-12-08T21:10:19.373Z,122.53
2018-12-08T21:12:48.489Z,113.67
2018-12-08T21:15:17.609Z,129.80
2018-12-08T21:17:46.723Z,144.07
2018-12-08T21:20:15.849Z,154.70
2018-12-08T21:22:44.960Z,151.70
2018-12-08T21:25:14.116Z,138.20
2018-12-08T21:27:43.206Z,154.00
2018-12-08T21:30:12.307Z,159.10
2018-12-08T21:32:41.444Z,148.90
2018-12-08T21:35:10.577Z,148.10
2018-12-08T21:37:39.693Z,145.80
2018-12-08T21:40:14.245Z,130.67
2018-12-08T21:42:43.352Z,139.47
2018-12-08T21:45:12.475Z,197.47
2018-12-08T21:47:41.554Z,167.63
2018-12-08T21:50:10.667Z,151.97
2018-12-08T21:52:39.780Z,159.77
2018-12-08T21:55:08.869Z,130.13
2018-12-08T21:57:37.983Z,145.23
2018-12-08T22:00:07.497Z,168.37
2018-12-08T22:02:36.631Z,158.07
2018-12-08T22:05:06.041Z,145.37
2018-12-08T22:07:35.145Z,137.30
2018-12-08T22:10:04.390Z,126.83
2018-12-08T22:12:33.489Z,119.87
2018-12-08T22:15:06.606Z,120.47
2018-12-08T22:17:35.749Z,133.50
2018-12-08T22:20:05.168Z,126.40
2018-12-08T22:22:34.273Z,125.73
2018-12-08T22:25:03.381Z,126.23
2018-12-08T22:27:32.481Z,129.27
2018-12-08T22:30:01.592Z,125.70
2018-12-08T22:32:30.733Z,132.90
2018-12-08T22:34:59.849Z,136.43
2018-12-08T22:37:29.155Z,144.30
2018-12-08T22:39:58.323Z,189.20
2018-12-08T22:42:27.461Z,153.17
2018-12-08T22:44:56.535Z,153.40
2018-12-08T22:47:25.628Z,177.00
2018-12-08T22:49:54.744Z,192.00
2018-12-08T22:52:23.885Z,298.17
2018-12-08T22:54:52.969Z,256.83
2018-12-08T22:57:22.065Z,272.03
2018-12-08T22:59:51.180Z,261.87
2018-12-08T23:02:20.310Z,266.53
2018-12-08T23:04:49.425Z,247.50
2018-12-08T23:07:18.590Z,240.30
2018-12-08T23:09:47.681Z,254.70
2018-12-08T23:12:16.778Z,254.10
2018-12-08T23:14:45.896Z,244.47
2018-12-08T23:17:15.009Z,243.33
2018-12-08T23:19:44.134Z,211.70
2018-12-08T23:22:13.224Z,244.20
2018-12-08T23:24:42.345Z,251.27
2018-12-08T23:27:11.451Z,226.87
2018-12-08T23:29:40.565Z,192.20
2018-12-08T23:32:09.676Z,188.20
2018-12-08T23:34:38.811Z,183.93
2018-12-08T23:37:07.872Z,184.93
2018-12-08T23:39:39.181Z,165.63
2018-12-08T23:42:08.093Z,147.43
2018-12-08T23:44:37.226Z,150.20
2018-12-08T23:47:06.308Z,148.10
2018-12-08T23:49:35.424Z,142.87
2018-12-08T23:52:04.510Z,147.53
2018-12-08T23:54:33.642Z,142.77
2018-12-08T23:57:02.737Z,144.87
2018-12-08T23:59:31.860Z,144.13
